Time;durP1;ratioP1;P1;durP2;ratioP2;P2;SDS_P1;SDS_P2;PMS_P1;PMS_P2;Temp;Humidity;BMP_temperature;BMP_pressure;BME280_temperature;BME280_humidity;BME280_pressure;Samples;Min_cycle;Max_cycle;Signal;HPM_P1;HPM_P2
2022/12/18 00:01:20;;;;;;;9.80;6.83;;;-5.50;99.90;;;;;;4973437;28;20455;-84
2022/12/18 00:03:45;;;;;;;5.70;4.90;;;-5.40;99.90;;;;;;4973786;28;20498;-85
2022/12/18 00:06:11;;;;;;;7.90;6.83;;;-5.70;99.90;;;;;;4974987;28;20412;-84
2022/12/18 00:08:37;;;;;;;9.50;5.10;;;-5.60;99.90;;;;;;4973730;28;20554;-83
2022/12/18 00:11:08;;;;;;;10.97;6.90;;;-5.40;99.90;;;;;;4973709;28;20507;-83
2022/12/18 00:13:34;;;;;;;13.17;6.80;;;-5.30;99.90;;;;;;4972958;28;20172;-83
2022/12/18 00:16:05;;;;;;;7.97;5.43;;;-5.40;99.90;;;;;;4975447;28;20988;-83
2022/12/18 00:18:35;;;;;;;9.23;7.93;;;-5.40;99.90;;;;;;4976084;28;20423;-85
2022/12/18 00:21:05;;;;;;;7.80;5.47;;;-5.40;99.90;;;;;;4973634;28;20416;-84
2022/12/18 00:23:32;;;;;;;8.87;7.67;;;-5.40;99.90;;;;;;4973600;28;20490;-84
2022/12/18 00:26:02;;;;;;;7.73;7.10;;;-5.50;99.90;;;;;;4973581;28;20411;-88
2022/12/18 00:28:31;;;;;;;7.67;6.80;;;-5.40;99.90;;;;;;4964386;28;20488;-85
2022/12/18 00:31:04;;;;;;;5.53;5.13;;;-5.30;99.90;;;;;;4988903;28;20815;-84
2022/12/18 00:33:30;;;;;;;9.97;6.07;;;-5.40;99.90;;;;;;4973162;28;20444;-84
2022/12/18 00:36:05;;;;;;;12.50;7.03;;;-5.50;99.90;;;;;;4973998;28;20432;-84
2022/12/18 00:38:30;;;;;;;8.03;4.63;;;-5.70;99.90;;;;;;4934427;28;20455;-85
2022/12/18 00:40:56;;;;;;;9.93;6.60;;;-5.60;99.90;;;;;;4972765;28;20956;-86
2022/12/18 00:43:21;;;;;;;10.00;7.63;;;-5.60;99.90;;;;;;4972524;28;20303;-86
2022/12/18 00:45:47;;;;;;;5.60;5.20;;;-5.90;99.90;;;;;;4972600;28;20510;-84
2022/12/18 00:48:12;;;;;;;8.80;7.57;;;-5.90;99.90;;;;;;4972509;28;20227;-85
2022/12/18 00:50:38;;;;;;;13.70;6.07;;;-5.80;99.90;;;;;;4973713;28;20180;-84
2022/12/18 00:53:03;;;;;;;9.07;7.90;;;-5.80;99.90;;;;;;4973982;28;20223;-85
2022/12/18 00:55:29;;;;;;;8.93;6.53;;;-5.80;99.90;;;;;;4972655;28;20225;-85
2022/12/18 00:57:54;;;;;;;7.97;5.70;;;-5.70;99.90;;;;;;4973299;28;20189;-86
2022/12/18 01:00:20;;;;;;;6.83;6.17;;;-5.90;99.90;;;;;;4972874;28;20184;-85
2022/12/18 01:02:46;;;;;;;15.73;7.13;;;-5.70;99.90;;;;;;4973518;28;20275;-86
2022/12/18 01:05:12;;;;;;;5.43;4.90;;;-5.60;99.90;;;;;;4973987;28;20944;-85
2022/12/18 01:07:39;;;;;;;7.10;6.40;;;-5.70;99.90;;;;;;4973362;28;20180;-85
2022/12/18 01:10:05;;;;;;;5.87;4.67;;;-5.90;99.90;;;;;;4973956;28;20474;-85
2022/12/18 01:12:31;;;;;;;8.03;5.20;;;-5.80;99.90;;;;;;4972677;28;20803;-85
2022/12/18 01:14:57;;;;;;;10.03;6.60;;;-5.90;99.90;;;;;;4975614;28;20427;-86
2022/12/18 01:17:22;;;;;;;5.43;5.00;;;-6.00;99.90;;;;;;4976576;28;20180;-85
2022/12/18 01:19:48;;;;;;;8.27;7.40;;;-6.00;99.90;;;;;;4977995;28;20318;-85
2022/12/18 01:22:14;;;;;;;6.50;5.13;;;-6.00;99.90;;;;;;4977060;28;20676;-84
2022/12/18 01:24:39;;;;;;;4.57;2.63;;;-5.90;99.90;;;;;;4992723;28;20185;-84
2022/12/18 01:27:05;;;;;;;8.47;5.40;;;-5.90;99.90;;;;;;4992254;28;20510;-85
2022/12/18 01:29:30;;;;;;;7.57;5.17;;;-6.00;99.90;;;;;;4976155;28;20168;-85
2022/12/18 01:31:57;;;;;;;13.20;8.50;;;-6.00;99.90;;;;;;4976894;28;20187;-84
2022/12/18 01:34:23;;;;;;;5.83;4.37;;;-5.70;99.90;;;;;;4977434;28;20542;-84
2022/12/18 01:36:49;;;;;;;18.00;5.50;;;-6.00;99.90;;;;;;4977544;28;20422;-85
2022/12/18 01:39:15;;;;;;;9.10;5.27;;;-6.00;99.90;;;;;;4977464;28;20506;-83
2022/12/18 01:44:50;;;;;;;5.53;4.47;;;-6.00;99.90;;;;;;4980921;28;20439;-85
2022/12/18 01:47:24;;;;;;;5.03;4.53;;;-6.00;99.90;;;;;;4977553;28;20424;-84
2022/12/18 01:49:50;;;;;;;8.83;5.93;;;-6.00;99.90;;;;;;4977326;28;20494;-85
2022/12/18 01:52:17;;;;;;;4.77;3.67;;;-6.10;99.90;;;;;;4977329;28;20482;-85
2022/12/18 01:54:43;;;;;;;5.47;4.93;;;-6.00;99.90;;;;;;4977010;28;21160;-85
2022/12/18 01:57:09;;;;;;;8.40;4.40;;;-6.00;99.90;;;;;;4975439;28;20435;-85
2022/12/18 01:59:35;;;;;;;5.60;5.07;;;-6.10;99.90;;;;;;4975822;28;20413;-86
2022/12/18 02:02:02;;;;;;;4.63;4.20;;;-6.10;99.90;;;;;;4975302;28;20668;-85
2022/12/18 02:04:28;;;;;;;6.53;4.40;;;-6.20;99.90;;;;;;4975739;28;20468;-85
2022/12/18 02:07:24;;;;;;;6.80;4.53;;;-6.10;99.90;;;;;;4977112;28;20421;-85
2022/12/18 02:10:07;;;;;;;5.93;5.27;;;-6.10;99.90;;;;;;4977068;28;20908;-86
2022/12/18 02:13:07;;;;;;;5.03;4.60;;;-6.30;99.90;;;;;;4975893;28;20424;-84
2022/12/18 02:15:59;;;;;;;11.40;6.40;;;-6.30;99.90;;;;;;4975452;28;20571;-85
2022/12/18 02:18:42;;;;;;;5.70;4.87;;;-6.20;99.90;;;;;;4935521;28;20443;-85
2022/12/18 02:21:36;;;;;;;15.40;7.67;;;-6.30;99.90;;;;;;4975438;28;20470;-85
2022/12/18 02:24:33;;;;;;;6.50;6.00;;;-6.20;99.90;;;;;;4974825;28;20476;-85
2022/12/18 02:27:02;;;;;;;6.77;4.33;;;-6.60;99.90;;;;;;4974909;28;20932;-85
2022/12/18 02:29:37;;;;;;;7.70;5.83;;;-6.50;99.90;;;;;;4975282;28;20944;-86
2022/12/18 02:32:08;;;;;;;4.73;4.10;;;-6.60;99.90;;;;;;4976112;28;20527;-84
2022/12/18 02:34:38;;;;;;;8.50;5.20;;;-6.60;99.90;;;;;;4976549;28;20404;-85
2022/12/18 02:37:07;;;;;;;8.13;3.87;;;-6.70;99.90;;;;;;4975169;28;20426;-85
2022/12/18 02:39:35;;;;;;;3.10;2.83;;;-6.80;99.90;;;;;;4976340;28;20986;-84
2022/12/18 02:42:07;;;;;;;9.90;3.77;;;-6.60;99.90;;;;;;4975165;28;20514;-85
2022/12/18 02:44:33;;;;;;;7.67;6.50;;;-6.60;99.90;;;;;;4991023;28;20888;-85
2022/12/18 02:46:59;;;;;;;3.77;3.37;;;-6.60;99.90;;;;;;4991430;28;21047;-86
2022/12/18 02:49:38;;;;;;;4.43;4.03;;;-6.50;99.90;;;;;;4976269;28;20420;-85
2022/12/18 02:52:41;;;;;;;5.23;4.73;;;-6.60;99.90;;;;;;4976285;28;20182;-86
2022/12/18 02:55:39;;;;;;;4.93;4.47;;;-6.60;99.90;;;;;;4975782;28;20475;-85
2022/12/18 02:58:41;;;;;;;5.30;3.90;;;-6.60;99.90;;;;;;4970757;28;20513;-86
2022/12/18 03:01:34;;;;;;;6.47;4.57;;;-6.50;99.90;;;;;;4946684;28;20839;-85
2022/12/18 03:04:06;;;;;;;5.40;5.00;;;-6.70;99.90;;;;;;4975832;28;20486;-84
2022/12/18 03:06:37;;;;;;;4.37;3.57;;;-6.60;99.90;;;;;;4975818;28;20426;-84
2022/12/18 03:09:09;;;;;;;6.10;5.27;;;-6.50;99.90;;;;;;4976521;28;20427;-84
2022/12/18 03:14:24;;;;;;;4.83;4.53;;;-6.70;99.90;;;;;;4975501;28;20416;-85
2022/12/18 03:16:53;;;;;;;3.77;3.47;;;-6.80;99.90;;;;;;4990539;28;20817;-84
2022/12/18 03:19:24;;;;;;;6.83;5.37;;;-6.80;99.90;;;;;;4974287;28;20451;-85
2022/12/18 03:21:53;;;;;;;4.80;3.83;;;-6.90;99.90;;;;;;4974260;28;20877;-84
2022/12/18 03:24:20;;;;;;;7.80;5.47;;;-6.80;99.90;;;;;;4974325;28;20439;-84
2022/12/18 03:26:50;;;;;;;4.00;3.27;;;-7.00;99.90;;;;;;4974983;28;20958;-86
2022/12/18 03:29:23;;;;;;;2.73;2.50;;;;;;;;;;4973770;28;20435;-85
2022/12/18 03:31:52;;;;;;;4.43;4.03;;;;;;;;;;4974899;28;20410;-85
2022/12/18 03:34:29;;;;;;;4.20;3.40;;;-7.50;99.90;;;;;;4990285;28;20420;-84
2022/12/18 03:36:55;;;;;;;7.17;4.00;;;;;;;;;;4974389;28;20420;-85
2022/12/18 03:39:21;;;;;;;5.43;4.67;;;;;;;;;;4975121;28;20506;-85
2022/12/18 03:42:04;;;;;;;8.07;4.37;;;-7.20;99.90;;;;;;4975163;28;21008;-85
2022/12/18 03:44:57;;;;;;;5.13;4.73;;;-7.00;99.90;;;;;;4973698;28;20794;-86
2022/12/18 03:47:30;;;;;;;10.20;4.70;;;-6.80;99.90;;;;;;4932385;28;20960;-86
2022/12/18 03:50:05;;;;;;;6.17;3.57;;;;;;;;;;4954845;29;20957;-86
2022/12/18 03:52:38;;;;;;;9.93;5.00;;;-6.90;99.90;;;;;;4971055;28;20522;-86
2022/12/18 03:55:05;;;;;;;4.97;3.80;;;-6.80;99.90;;;;;;4954431;29;20468;-86
2022/12/18 03:57:32;;;;;;;6.33;3.63;;;-6.80;99.90;;;;;;4963108;28;20488;-85
2022/12/18 04:00:06;;;;;;;4.87;2.50;;;-6.90;99.90;;;;;;4970784;28;20408;-85
2022/12/18 04:02:33;;;;;;;6.20;4.10;;;-6.80;99.90;;;;;;4982285;28;20475;-85
2022/12/18 04:05:03;;;;;;;5.70;5.13;;;-6.90;99.90;;;;;;4974856;28;20458;-85
2022/12/18 04:07:29;;;;;;;4.90;4.70;;;-6.80;99.90;;;;;;4974570;28;20443;-85
2022/12/18 04:09:56;;;;;;;3.73;3.43;;;-6.90;99.90;;;;;;4974834;28;20439;-85
2022/12/18 04:12:26;;;;;;;4.13;3.57;;;-7.00;99.90;;;;;;4973238;28;20420;-86
2022/12/18 04:14:52;;;;;;;6.43;4.70;;;-6.90;99.90;;;;;;4973564;28;20458;-86
2022/12/18 04:17:18;;;;;;;5.57;4.30;;;-6.90;99.90;;;;;;4974512;28;20423;-85
2022/12/18 04:19:43;;;;;;;4.60;4.20;;;-7.00;99.90;;;;;;4974655;28;20181;-86
2022/12/18 04:22:10;;;;;;;2.27;2.07;;;-7.00;99.90;;;;;;4973097;28;20258;-85
2022/12/18 04:24:37;;;;;;;5.90;4.27;;;-7.00;99.90;;;;;;4973400;28;20209;-85
2022/12/18 04:27:03;;;;;;;11.00;5.93;;;-7.00;99.90;;;;;;4969407;28;20431;-86
2022/12/18 04:29:29;;;;;;;5.17;4.77;;;-7.00;99.90;;;;;;4954885;28;20202;-85
2022/12/18 04:31:54;;;;;;;6.83;6.30;;;-7.00;99.90;;;;;;4960615;28;20861;-86
2022/12/18 04:34:20;;;;;;;5.53;4.77;;;-7.00;99.90;;;;;;4973224;28;20621;-85
2022/12/18 04:36:46;;;;;;;3.53;3.30;;;-6.90;99.90;;;;;;4976407;28;20204;-85
2022/12/18 04:39:11;;;;;;;5.10;2.97;;;-7.00;99.90;;;;;;4973038;28;20435;-85
2022/12/18 04:41:37;;;;;;;1.87;1.77;;;-7.00;99.90;;;;;;4969482;28;20235;-85
2022/12/18 04:44:03;;;;;;;5.23;4.73;;;-7.10;99.90;;;;;;4954762;29;20283;-85
2022/12/18 04:46:28;;;;;;;3.77;3.50;;;-7.10;99.90;;;;;;4954743;28;20196;-85
2022/12/18 04:48:54;;;;;;;4.57;4.17;;;-7.40;99.90;;;;;;4953547;28;20440;-87
2022/12/18 04:51:19;;;;;;;4.47;4.03;;;-7.20;99.90;;;;;;4954937;29;20178;-85
2022/12/18 04:53:45;;;;;;;5.20;3.47;;;-7.30;99.90;;;;;;4953294;29;20193;-85
2022/12/18 04:56:13;;;;;;;5.53;5.13;;;-7.10;99.90;;;;;;4955724;28;20514;-85
2022/12/18 04:58:40;;;;;;;8.00;6.20;;;-7.50;99.90;;;;;;4973799;28;20255;-85
2022/12/18 05:01:07;;;;;;;3.60;3.27;;;-7.30;99.90;;;;;;4973732;28;20466;-84
2022/12/18 05:03:34;;;;;;;6.10;3.97;;;-7.30;99.90;;;;;;4972293;28;20463;-84
2022/12/18 05:05:59;;;;;;;4.57;3.50;;;-7.30;99.90;;;;;;4973971;28;20409;-83
2022/12/18 05:08:25;;;;;;;2.53;2.33;;;-7.30;99.90;;;;;;4972667;28;20429;-86
2022/12/18 05:10:59;;;;;;;14.73;4.30;;;-7.30;99.90;;;;;;4973823;28;20176;-84
2022/12/18 05:13:24;;;;;;;7.53;5.03;;;-7.30;99.90;;;;;;4973389;28;20177;-83
2022/12/18 05:15:53;;;;;;;5.57;4.30;;;-7.20;99.90;;;;;;4973861;28;20423;-86
2022/12/18 05:18:19;;;;;;;5.70;5.23;;;-7.40;99.90;;;;;;4973734;28;20609;-83
2022/12/18 05:20:44;;;;;;;7.03;4.03;;;-7.30;99.90;;;;;;4973776;28;20499;-83
2022/12/18 05:23:09;;;;;;;7.13;4.40;;;-7.20;99.90;;;;;;4973528;28;20212;-85
2022/12/18 05:25:35;;;;;;;4.67;4.40;;;-7.30;99.90;;;;;;4972512;28;20176;-87
2022/12/18 05:28:01;;;;;;;4.73;4.33;;;-7.30;99.90;;;;;;4973106;28;20191;-88
2022/12/18 05:30:27;;;;;;;4.17;3.57;;;-7.50;99.90;;;;;;4973758;28;20168;-85
2022/12/18 05:32:52;;;;;;;7.60;6.90;;;-7.30;99.90;;;;;;4973143;28;20242;-85
2022/12/18 05:35:18;;;;;;;3.90;3.60;;;-7.40;99.90;;;;;;4973486;28;20420;-84
2022/12/18 05:37:44;;;;;;;3.63;3.40;;;-7.40;99.90;;;;;;4972463;28;20608;-86
2022/12/18 05:40:10;;;;;;;7.73;4.93;;;-7.40;99.90;;;;;;4988475;28;20668;-82
2022/12/18 05:42:36;;;;;;;5.90;3.53;;;-7.30;99.90;;;;;;4973047;28;20701;-86
2022/12/18 05:45:02;;;;;;;3.33;2.90;;;-7.40;99.90;;;;;;4972376;28;20475;-85
2022/12/18 05:47:28;;;;;;;4.97;4.57;;;-6.80;99.90;;;;;;4972122;28;20180;-85
2022/12/18 05:49:54;;;;;;;8.37;4.23;;;-7.10;99.90;;;;;;4972241;28;20427;-85
2022/12/18 05:52:20;;;;;;;8.30;3.40;;;;;;;;;;4950975;28;20439;-85
2022/12/18 05:54:49;;;;;;;7.23;3.53;;;-7.40;99.90;;;;;;4989798;28;20478;-86
2022/12/18 05:57:18;;;;;;;9.17;6.13;;;-7.40;99.90;;;;;;4973591;28;20440;-86
2022/12/18 05:59:46;;;;;;;12.90;8.90;;;-7.30;99.90;;;;;;4974194;28;20427;-86
2022/12/18 06:02:12;;;;;;;2.03;1.93;;;-7.30;99.90;;;;;;4977521;28;20471;-86
2022/12/18 06:04:40;;;;;;;7.17;6.43;;;-7.20;99.90;;;;;;4977044;28;20522;-86
2022/12/18 06:07:07;;;;;;;3.83;3.63;;;-7.30;99.90;;;;;;4978961;28;20180;-88
2022/12/18 06:09:34;;;;;;;4.00;3.70;;;-6.90;99.90;;;;;;4994617;28;20490;-87
2022/12/18 06:12:00;;;;;;;8.83;4.80;;;-7.40;99.90;;;;;;4992283;28;20512;-86
2022/12/18 06:14:26;;;;;;;4.80;4.43;;;-7.20;99.90;;;;;;4976503;28;20464;-84
2022/12/18 06:16:52;;;;;;;6.27;4.10;;;-7.40;99.90;;;;;;4976775;28;20514;-85
2022/12/18 06:19:17;;;;;;;5.57;5.07;;;-7.30;99.90;;;;;;4975713;28;20671;-84
2022/12/18 06:21:43;;;;;;;6.63;5.40;;;-7.40;99.90;;;;;;4975600;28;20227;-85
2022/12/18 06:24:09;;;;;;;4.93;3.70;;;-7.30;99.90;;;;;;4991527;28;20243;-84
2022/12/18 06:26:37;;;;;;;5.03;4.60;;;-7.30;99.90;;;;;;4976365;28;20176;-85
2022/12/18 06:29:02;;;;;;;8.67;6.90;;;-7.50;99.90;;;;;;4975864;28;20259;-81
2022/12/18 06:31:28;;;;;;;4.23;4.03;;;-6.90;99.90;;;;;;4991454;28;20936;-83
2022/12/18 06:33:54;;;;;;;5.70;5.30;;;-7.60;99.90;;;;;;4975991;28;20173;-82
2022/12/18 06:36:20;;;;;;;3.17;2.87;;;-7.50;99.90;;;;;;4975176;28;20184;-83
2022/12/18 06:38:46;;;;;;;4.90;4.60;;;-7.50;99.90;;;;;;4975821;28;20160;-82
2022/12/18 06:41:17;;;;;;;4.87;4.47;;;-7.50;99.90;;;;;;4991511;28;20416;-82
2022/12/18 06:43:43;;;;;;;5.80;5.30;;;-7.60;99.90;;;;;;4974981;28;20216;-84
2022/12/18 06:46:09;;;;;;;9.93;6.23;;;-7.60;99.90;;;;;;4976445;28;20419;-84
2022/12/18 06:48:35;;;;;;;7.57;4.93;;;-7.60;99.90;;;;;;4976552;28;20470;-82
2022/12/18 06:51:01;;;;;;;5.73;5.00;;;-7.60;99.90;;;;;;4976493;28;20658;-83
2022/12/18 06:53:27;;;;;;;8.23;7.40;;;-7.60;99.90;;;;;;4974902;28;20319;-84
2022/12/18 06:55:53;;;;;;;5.17;4.70;;;-7.60;99.90;;;;;;4975087;28;20455;-82
2022/12/18 06:58:18;;;;;;;4.17;3.77;;;-7.60;99.90;;;;;;4974905;28;20188;-85
2022/12/18 07:00:44;;;;;;;5.90;5.40;;;-7.50;99.90;;;;;;4976238;28;20576;-84
2022/12/18 07:03:12;;;;;;;6.03;4.17;;;-7.50;99.90;;;;;;4935953;28;20681;-83
2022/12/18 07:05:41;;;;;;;3.00;2.90;;;-7.70;99.90;;;;;;4975047;28;20548;-84
2022/12/18 07:08:07;;;;;;;7.53;6.67;;;-7.60;99.90;;;;;;4974945;28;20430;-84
2022/12/18 07:10:32;;;;;;;9.20;5.13;;;-7.50;99.90;;;;;;4975383;28;20416;-84
2022/12/18 07:12:57;;;;;;;5.80;5.30;;;-7.50;99.90;;;;;;4975476;28;20230;-84
2022/12/18 07:15:23;;;;;;;5.47;4.00;;;-7.50;99.90;;;;;;4974858;28;20617;-84
2022/12/18 07:17:48;;;;;;;3.10;2.83;;;-7.50;99.90;;;;;;4974736;28;20179;-84
2022/12/18 07:20:14;;;;;;;5.73;5.20;;;-7.40;99.90;;;;;;4975742;28;20226;-83
2022/12/18 07:22:39;;;;;;;3.83;3.27;;;-7.70;99.90;;;;;;4974297;28;20728;-82
2022/12/18 07:25:06;;;;;;;6.67;5.87;;;-7.50;99.90;;;;;;4974356;28;20184;-82
2022/12/18 07:27:31;;;;;;;9.33;5.13;;;-7.60;99.90;;;;;;4973672;28;20205;-82
2022/12/18 07:29:57;;;;;;;5.00;4.50;;;-7.70;99.90;;;;;;4977419;28;21155;-85
2022/12/18 07:32:31;;;;;;;4.33;4.03;;;-7.50;99.90;;;;;;4978816;28;20183;-83
2022/12/18 07:34:57;;;;;;;8.23;5.83;;;-7.50;99.90;;;;;;4978826;28;20179;-84
2022/12/18 07:37:22;;;;;;;5.37;5.00;;;-7.50;99.90;;;;;;4979327;28;20777;-84
2022/12/18 07:39:48;;;;;;;5.03;4.40;;;-7.40;99.90;;;;;;4975133;28;20648;-85
2022/12/18 07:42:32;;;;;;;7.30;4.63;;;-7.20;99.90;;;;;;4974352;28;20200;-85
2022/12/18 07:45:00;;;;;;;10.20;4.90;;;-7.50;99.90;;;;;;4975104;28;20680;-85
2022/12/18 07:47:27;;;;;;;10.63;5.37;;;-7.50;99.90;;;;;;4975992;28;20423;-86
2022/12/18 07:49:55;;;;;;;5.70;4.83;;;-7.40;99.90;;;;;;4975771;28;20434;-88
2022/12/18 07:52:21;;;;;;;7.90;7.10;;;-7.40;99.90;;;;;;4974732;28;20499;-85
2022/12/18 07:54:49;;;;;;;5.30;4.80;;;-7.50;99.90;;;;;;4974390;28;20890;-86
2022/12/18 07:57:16;;;;;;;6.50;4.53;;;-7.40;99.90;;;;;;4990381;28;20177;-86
2022/12/18 07:59:41;;;;;;;6.87;6.20;;;-7.40;99.90;;;;;;4974574;28;20933;-85
2022/12/18 08:02:07;;;;;;;6.70;6.00;;;-7.40;99.90;;;;;;4974234;28;20983;-85
2022/12/18 08:04:35;;;;;;;4.23;3.83;;;-7.20;99.90;;;;;;4974374;28;20180;-86
2022/12/18 08:07:04;;;;;;;12.43;7.73;;;-7.30;99.90;;;;;;4974212;28;20176;-87
2022/12/18 08:09:29;;;;;;;16.40;9.63;;;-7.50;99.90;;;;;;4974234;28;20434;-87
2022/12/18 08:11:58;;;;;;;6.50;5.90;;;-7.00;99.90;;;;;;4990065;28;20423;-87
2022/12/18 08:14:24;;;;;;;8.60;7.83;;;-7.20;99.90;;;;;;4974222;28;20186;-86
2022/12/18 08:16:49;;;;;;;9.97;5.03;;;-6.20;99.90;;;;;;4974195;28;20474;-85
2022/12/18 08:19:18;;;;;;;8.37;6.30;;;-7.00;99.90;;;;;;4973718;28;20415;-83
2022/12/18 08:21:43;;;;;;;7.43;6.50;;;-7.00;99.90;;;;;;4973522;28;20323;-83
2022/12/18 08:24:10;;;;;;;7.50;6.17;;;-7.00;99.90;;;;;;4973537;28;20558;-83
2022/12/18 08:26:35;;;;;;;11.03;8.00;;;-6.80;99.90;;;;;;4973400;28;20176;-85
2022/12/18 08:29:01;;;;;;;9.47;7.30;;;-6.50;99.90;;;;;;4973398;28;20431;-85
2022/12/18 08:31:32;;;;;;;10.07;7.37;;;-6.80;99.90;;;;;;4974199;28;20213;-87
2022/12/18 08:33:58;;;;;;;8.83;7.93;;;-6.80;99.90;;;;;;4973409;28;20188;-85
2022/12/18 08:36:28;;;;;;;10.90;7.97;;;-6.80;99.90;;;;;;4973409;28;20782;-85
2022/12/18 08:38:54;;;;;;;6.13;3.80;;;-6.80;99.90;;;;;;4973230;28;20428;-85
2022/12/18 08:41:20;;;;;;;8.13;7.43;;;-6.60;99.90;;;;;;4974420;28;20420;-85
2022/12/18 08:46:38;;;;;;;12.87;7.27;;;-6.40;99.90;;;;;;4925915;29;20236;-84
2022/12/18 08:49:05;;;;;;;9.70;7.67;;;-6.40;99.90;;;;;;4957808;28;20870;-83
2022/12/18 08:51:31;;;;;;;13.13;10.17;;;-6.40;99.90;;;;;;4973764;28;20437;-86
2022/12/18 08:53:57;;;;;;;8.43;4.87;;;-6.30;99.90;;;;;;4968250;28;20424;-86
2022/12/18 08:56:23;;;;;;;7.07;4.90;;;-6.20;99.90;;;;;;4973760;28;20431;-89
2022/12/18 08:58:52;;;;;;;9.30;6.23;;;-6.30;99.90;;;;;;4978202;28;20443;-90
2022/12/18 09:01:17;;;;;;;20.03;11.10;;;-6.20;99.90;;;;;;4974390;28;20592;-89
2022/12/18 09:03:43;;;;;;;8.20;5.73;;;-6.20;99.90;;;;;;4989148;28;20480;-84
2022/12/18 09:06:08;;;;;;;7.77;5.87;;;-6.20;99.90;;;;;;4989068;28;20176;-85
2022/12/18 09:08:34;;;;;;;24.83;8.80;;;-5.80;99.90;;;;;;4973576;28;20215;-88
2022/12/18 09:11:02;;;;;;;7.50;6.70;;;-6.00;99.90;;;;;;4987203;28;20263;-85
2022/12/18 09:13:28;;;;;;;6.23;4.27;;;-5.90;99.90;;;;;;4987509;28;20787;-86
2022/12/18 09:15:55;;;;;;;4.03;3.60;;;-5.80;99.90;;;;;;4987967;28;20413;-86
2022/12/18 09:18:22;;;;;;;4.70;4.30;;;-5.40;99.90;;;;;;4987546;28;20184;-86
2022/12/18 09:20:48;;;;;;;11.23;6.20;;;-5.60;99.90;;;;;;4972951;28;20423;-85
2022/12/18 09:23:14;;;;;;;15.27;8.80;;;-5.60;99.90;;;;;;4972362;28;21149;-85
2022/12/18 09:25:42;;;;;;;9.40;6.87;;;-5.20;99.90;;;;;;4968218;28;20187;-87
2022/12/18 09:28:14;;;;;;;6.03;4.30;;;-5.50;99.90;;;;;;4962755;28;20975;-86
2022/12/18 09:30:41;;;;;;;10.83;6.03;;;-5.40;99.90;;;;;;4972557;28;20920;-90
2022/12/18 09:33:07;;;;;;;6.63;6.03;;;-5.40;99.90;;;;;;4972307;28;20548;-81
2022/12/18 09:35:36;;;;;;;9.70;8.50;;;-5.50;99.90;;;;;;4975254;28;20431;-80
2022/12/18 09:38:02;;;;;;;6.03;5.27;;;-5.30;99.90;;;;;;4976015;28;20231;-80
2022/12/18 09:40:50;;;;;;;13.63;8.63;;;-5.40;99.90;;;;;;4992526;28;20431;-81
2022/12/18 09:43:20;;;;;;;10.70;9.60;;;-5.20;99.90;;;;;;4992136;28;20229;-80
2022/12/18 09:45:52;;;;;;;13.93;6.67;;;-5.20;99.90;;;;;;4977533;28;20420;-81
2022/12/18 09:48:23;;;;;;;15.83;8.80;;;-4.90;99.90;;;;;;4922338;28;20443;-82
2022/12/18 09:51:01;;;;;;;13.83;8.77;;;-4.90;97.70;;;;;;4956844;28;20814;-83
2022/12/18 09:53:32;;;;;;;8.20;6.47;;;-4.90;70.40;;;;;;4957025;28;20443;-81
2022/12/18 09:56:01;;;;;;;12.03;8.20;;;-4.80;69.20;;;;;;4957843;29;20510;-82
2022/12/18 09:58:50;;;;;;;16.90;7.90;;;-4.60;59.50;;;;;;4957598;29;20484;-82
2022/12/18 10:01:20;;;;;;;9.60;6.80;;;-4.40;26.80;;;;;;4956918;29;20414;-81
2022/12/18 10:03:46;;;;;;;11.40;5.37;;;-4.50;17.10;;;;;;4957601;28;20481;-82
2022/12/18 10:06:34;;;;;;;10.43;7.90;;;-4.70;1.00;;;;;;4957907;29;20419;-82
2022/12/18 10:09:33;;;;;;;11.07;8.70;;;-4.60;1.00;;;;;;4957755;29;20425;-82
2022/12/18 10:12:07;;;;;;;10.50;7.23;;;-4.50;1.00;;;;;;4947146;28;21029;-81
2022/12/18 10:14:43;;;;;;;9.33;6.17;;;-4.30;1.00;;;;;;4968208;28;20492;-82
2022/12/18 10:17:35;;;;;;;12.77;6.83;;;-4.20;1.00;;;;;;4975984;28;20426;-84
2022/12/18 10:20:15;;;;;;;12.00;9.00;;;-4.10;1.00;;;;;;4976642;28;20490;-79
2022/12/18 10:22:57;;;;;;;11.13;6.77;;;-4.00;1.00;;;;;;4991472;28;20562;-82
2022/12/18 10:25:41;;;;;;;11.07;7.47;;;-4.10;1.00;;;;;;4976829;28;20426;-79
2022/12/18 10:28:13;;;;;;;12.97;5.83;;;-4.00;1.00;;;;;;4976240;28;20454;-80
2022/12/18 10:30:40;;;;;;;9.87;6.43;;;-3.80;1.00;;;;;;4976510;28;20423;-81
2022/12/18 10:33:09;;;;;;;13.60;9.30;;;-3.70;1.00;;;;;;4975981;28;20424;-80
2022/12/18 10:35:36;;;;;;;14.90;9.30;;;-3.70;1.00;;;;;;4969820;28;20471;-79
2022/12/18 10:38:06;;;;;;;13.17;8.87;;;-3.60;1.00;;;;;;4957540;28;20495;-80
2022/12/18 10:40:32;;;;;;;12.80;7.60;;;-3.30;1.00;;;;;;4971301;28;20415;-81
2022/12/18 10:43:27;;;;;;;12.07;9.77;;;-2.90;99.90;;;;;;4970572;28;21118;-81
2022/12/18 10:46:08;;;;;;;11.17;8.30;;;-2.70;99.90;;;;;;4975148;28;20854;-81
2022/12/18 10:48:53;;;;;;;13.27;9.33;;;-2.30;1.00;;;;;;4950036;28;21216;-80
2022/12/18 10:51:33;;;;;;;15.47;9.67;;;-2.80;1.00;;;;;;4975145;28;20415;-83
2022/12/18 10:54:06;;;;;;;14.77;7.50;;;-2.70;99.90;;;;;;4974729;28;20427;-84
2022/12/18 10:56:34;;;;;;;10.57;8.00;;;-2.40;99.90;;;;;;4989438;28;20431;-80
2022/12/18 10:59:08;;;;;;;14.50;9.50;;;-1.30;99.90;;;;;;4975816;28;20427;-83
2022/12/18 11:01:45;;;;;;;14.77;10.13;;;-1.40;99.90;;;;;;4975703;28;21056;-82
2022/12/18 11:04:27;;;;;;;16.80;11.00;;;-1.30;1.00;;;;;;4975680;28;20481;-80
2022/12/18 11:07:08;;;;;;;15.47;8.73;;;0.20;99.90;;;;;;4973979;28;20428;-83
2022/12/18 11:09:39;;;;;;;16.47;9.33;;;1.10;1.00;;;;;;4990618;28;20556;-82
2022/12/18 11:12:22;;;;;;;14.87;7.60;;;0.40;1.00;;;;;;4974755;28;20416;-80
2022/12/18 11:14:53;;;;;;;12.50;7.70;;;0.70;1.00;;;;;;4975666;28;20610;-80
2022/12/18 11:17:30;;;;;;;14.07;7.93;;;0.40;1.00;;;;;;4974854;28;20424;-82
2022/12/18 11:20:00;;;;;;;17.47;7.77;;;-0.50;99.90;;;;;;4975536;28;20472;-82
2022/12/18 11:22:27;;;;;;;19.20;10.33;;;0.60;1.00;;;;;;4974012;28;20601;-82
2022/12/18 11:25:05;;;;;;;12.63;8.07;;;0.40;1.00;;;;;;4974206;28;20426;-82
2022/12/18 11:27:31;;;;;;;19.97;11.30;;;-0.60;99.90;;;;;;4989835;28;20519;-81
2022/12/18 11:30:19;;;;;;;11.43;7.13;;;-1.10;99.90;;;;;;4974150;28;20933;-81
2022/12/18 11:32:48;;;;;;;18.50;8.67;;;-1.50;85.20;;;;;;4990293;28;20172;-83
2022/12/18 11:35:41;;;;;;;10.00;5.80;;;-1.10;99.90;;;;;;4974000;28;20524;-83
2022/12/18 11:38:30;;;;;;;12.60;7.33;;;-2.00;9.10;;;;;;4975248;28;20400;-80
2022/12/18 11:44:47;;;;;;;11.10;8.40;;;-2.30;85.80;;;;;;4958830;28;20478;-80
2022/12/18 11:47:18;;;;;;;13.53;8.53;;;-2.40;99.90;;;;;;4989724;28;20419;-80
2022/12/18 11:49:49;;;;;;;12.10;9.67;;;-2.00;99.90;;;;;;4948684;28;20442;-79
2022/12/18 11:52:27;;;;;;;10.60;6.13;;;-2.00;1.00;;;;;;4990690;28;20410;-83
2022/12/18 11:54:58;;;;;;;6.90;5.37;;;0.20;1.00;;;;;;4975629;28;20870;-84
2022/12/18 11:57:52;;;;;;;13.73;9.10;;;1.10;99.90;;;;;;4972469;28;20462;-84
2022/12/18 12:00:22;;;;;;;13.50;8.07;;;1.10;20.20;;;;;;4974564;28;20479;-84
2022/12/18 12:03:09;;;;;;;10.53;7.07;;;0.80;46.30;;;;;;4972695;28;20560;-82
2022/12/18 12:06:04;;;;;;;10.40;7.50;;;0.40;99.90;;;;;;4969857;28;20427;-82
2022/12/18 12:08:35;;;;;;;16.77;9.10;;;-0.10;99.90;;;;;;4973464;28;20397;-83
2022/12/18 12:11:22;;;;;;;19.40;11.00;;;0.50;1.00;;;;;;4967452;28;20419;-83
2022/12/18 12:14:20;;;;;;;19.50;13.23;;;-0.10;99.90;;;;;;4967955;28;20495;-81
2022/12/18 12:16:57;;;;;;;10.27;8.50;;;-0.60;99.90;;;;;;4973982;28;20416;-83
2022/12/18 12:19:32;;;;;;;7.97;6.20;;;-1.10;99.90;;;;;;4984932;28;20452;-81
2022/12/18 12:22:25;;;;;;;11.10;7.03;;;-1.30;1.00;;;;;;4973200;28;20834;-80
2022/12/18 12:25:13;;;;;;;21.17;11.67;;;-1.40;99.90;;;;;;4983982;28;20435;-80
2022/12/18 12:28:01;;;;;;;12.57;9.30;;;-1.70;99.90;;;;;;4969635;28;20412;-80
2022/12/18 12:30:53;;;;;;;17.47;8.00;;;-1.70;99.90;;;;;;4971611;28;20435;-80
2022/12/18 12:33:24;;;;;;;9.53;8.27;;;-1.90;1.00;;;;;;4972739;28;20461;-80
2022/12/18 12:36:14;;;;;;;16.00;8.13;;;-1.80;99.90;;;;;;4987769;28;20471;-79
2022/12/18 12:38:50;;;;;;;18.40;10.30;;;-1.80;1.00;;;;;;4984502;28;20454;-79
2022/12/18 12:44:11;;;;;;;10.87;5.50;;;-1.80;73.30;;;;;;4972532;28;20480;-82
2022/12/18 12:46:39;;;;;;;14.67;8.07;;;-1.60;1.00;;;;;;4970870;28;20463;-81
2022/12/18 12:49:13;;;;;;;13.00;7.57;;;-1.80;1.00;;;;;;4987721;28;20447;-82
2022/12/18 12:51:44;;;;;;;9.13;5.70;;;-1.60;99.90;;;;;;4929798;28;20457;-82
2022/12/18 12:54:21;;;;;;;9.90;7.87;;;-1.60;1.00;;;;;;4970476;28;20462;-82
2022/12/18 12:57:10;;;;;;;10.00;6.97;;;-1.80;99.90;;;;;;4987518;28;20768;-80
2022/12/18 12:59:54;;;;;;;11.40;8.43;;;-1.90;99.90;;;;;;4958291;28;20424;-81
2022/12/18 13:02:35;;;;;;;9.17;5.70;;;-1.60;99.90;;;;;;4969186;28;20861;-83
2022/12/18 13:05:09;;;;;;;16.30;8.00;;;-1.60;99.90;;;;;;4959210;28;20940;-81
2022/12/18 13:07:37;;;;;;;7.77;5.00;;;-2.10;99.90;;;;;;4972934;28;20412;-81
2022/12/18 13:10:24;;;;;;;14.03;8.97;;;-2.00;99.90;;;;;;4972602;28;20793;-82
2022/12/18 13:12:56;;;;;;;12.07;7.93;;;-2.20;99.90;;;;;;4970326;28;20768;-82
2022/12/18 13:15:41;;;;;;;10.53;5.80;;;-2.10;99.90;;;;;;4972896;28;20431;-82
2022/12/18 13:18:09;;;;;;;17.27;7.80;;;-2.10;99.90;;;;;;4972897;28;20930;-82
2022/12/18 13:21:02;;;;;;;14.87;8.07;;;-1.80;99.90;;;;;;4973549;28;20419;-82